createdAt,value
2016-02-05T00:00:13.524Z,0
2016-02-05T00:01:13.403Z,0
2016-02-05T00:02:13.405Z,0
2016-02-05T00:03:13.455Z,0
2016-02-05T00:04:13.441Z,0
2016-02-05T00:05:13.461Z,0
2016-02-05T00:06:12.697Z,0
2016-02-05T00:07:13.310Z,0
2016-02-05T00:08:13.609Z,0
2016-02-05T00:09:13.455Z,0
2016-02-05T00:10:13.522Z,0
2016-02-05T00:11:13.540Z,0
2016-02-05T00:12:13.511Z,0
2016-02-05T00:13:13.467Z,0
2016-02-05T00:14:13.439Z,0
2016-02-05T00:15:16.540Z,0
2016-02-05T00:16:13.449Z,0
2016-02-05T00:17:13.483Z,0
2016-02-05T00:18:13.393Z,0
2016-02-05T00:19:13.411Z,0
2016-02-05T00:20:13.508Z,0
2016-02-05T00:21:13.432Z,0
2016-02-05T00:22:13.403Z,0
2016-02-05T00:23:13.423Z,0
2016-02-05T00:24:13.409Z,0
2016-02-05T00:25:13.448Z,0
2016-02-05T00:26:13.436Z,0
2016-02-05T00:27:13.470Z,0
2016-02-05T00:28:13.472Z,0
2016-02-05T00:29:13.397Z,0
2016-02-05T00:30:13.312Z,0
2016-02-05T00:31:13.315Z,0
2016-02-05T00:32:13.087Z,0
2016-02-05T00:33:13.435Z,0
2016-02-05T00:34:13.391Z,0
2016-02-05T00:35:13.450Z,0
2016-02-05T00:36:13.515Z,0
2016-02-05T00:37:13.377Z,0
2016-02-05T00:38:13.458Z,0
2016-02-05T00:39:13.430Z,0
2016-02-05T00:40:13.401Z,0
2016-02-05T00:41:13.403Z,0
2016-02-05T00:42:13.438Z,0
2016-02-05T00:43:13.414Z,0
2016-02-05T00:44:13.465Z,0
2016-02-05T00:45:13.437Z,0
2016-02-05T00:46:13.376Z,0
2016-02-05T00:47:13.379Z,0
2016-02-05T00:48:13.476Z,0
2016-02-05T00:49:13.417Z,0
2016-02-05T00:50:13.403Z,0
2016-02-05T00:51:13.437Z,0
2016-02-05T00:52:13.425Z,0
2016-02-05T00:53:13.381Z,0
2016-02-05T00:54:13.414Z,0
2016-02-05T00:55:13.388Z,0
2016-02-05T00:56:13.407Z,0
2016-02-05T00:57:13.238Z,0
2016-02-05T00:58:13.401Z,0
2016-02-05T00:59:13.465Z,0
2016-02-05T01:00:13.390Z,0
2016-02-05T01:01:13.393Z,0
2016-02-05T01:02:13.412Z,0
2016-02-05T01:03:13.429Z,0
2016-02-05T01:04:13.260Z,0
2016-02-05T01:05:13.310Z,0
2016-02-05T01:06:13.423Z,0
2016-02-05T01:07:13.378Z,0
2016-02-05T01:08:13.397Z,0
2016-02-05T01:09:13.478Z,0
2016-02-05T01:10:13.480Z,0
2016-02-05T01:11:13.405Z,0
2016-02-05T01:12:13.376Z,0
2016-02-05T01:13:13.397Z,0
2016-02-05T01:14:13.211Z,0
2016-02-05T01:15:13.386Z,0
2016-02-05T01:16:13.372Z,0
2016-02-05T01:17:13.375Z,0
2016-02-05T01:18:13.382Z,0
2016-02-05T01:19:13.401Z,0
2016-02-05T01:20:13.387Z,0
2016-02-05T01:21:13.233Z,0
2016-02-05T01:22:13.378Z,0
2016-02-05T01:23:13.348Z,0
2016-02-05T01:24:13.398Z,0
2016-02-05T01:25:13.385Z,0
2016-02-05T01:26:13.357Z,0
2016-02-05T01:27:13.422Z,0
2016-02-05T01:28:13.430Z,0
2016-02-05T01:29:13.354Z,0
2016-02-05T01:30:13.450Z,0
2016-02-05T01:31:13.375Z,0
2016-02-05T01:32:13.393Z,0
2016-02-05T01:33:13.427Z,0
2016-02-05T01:34:13.368Z,0
2016-02-05T01:35:13.406Z,0
2016-02-05T01:36:13.408Z,0
2016-02-05T01:37:13.380Z,0
2016-02-05T01:38:13.351Z,0
2016-02-05T01:39:13.354Z,0
2016-02-05T01:40:13.466Z,0
2016-02-05T01:41:13.375Z,0
2016-02-05T01:42:13.408Z,0
2016-02-05T01:43:13.318Z,0
2016-02-05T01:44:13.352Z,0
2016-02-05T01:45:13.401Z,0
2016-02-05T01:46:13.357Z,0
2016-02-05T01:47:13.374Z,0
2016-02-05T01:48:13.364Z,0
2016-02-05T01:49:13.381Z,0
2016-02-05T01:50:13.338Z,0
2016-02-05T01:51:13.371Z,0
2016-02-05T01:52:13.358Z,0
2016-02-05T01:53:13.334Z,0
2016-02-05T01:54:13.383Z,0
2016-02-05T01:55:13.482Z,0
2016-02-05T01:56:13.345Z,0
2016-02-05T01:57:13.316Z,0
2016-02-05T01:58:13.374Z,0
2016-02-05T01:59:13.329Z,0
2016-02-05T02:00:13.379Z,0
2016-02-05T02:01:13.367Z,0
2016-02-05T02:02:13.353Z,0
2016-02-05T02:03:13.356Z,0
2016-02-05T02:04:13.223Z,0
2016-02-05T02:05:13.320Z,0
2016-02-05T02:06:13.322Z,0
2016-02-05T02:07:13.371Z,0
2016-02-05T02:08:13.344Z,0
2016-02-05T02:09:13.331Z,0
2016-02-05T02:10:13.459Z,0
2016-02-05T02:11:13.337Z,0
2016-02-05T02:12:13.370Z,0
2016-02-05T02:13:13.390Z,0
2016-02-05T02:14:13.392Z,0
2016-02-05T02:15:13.395Z,0
2016-02-05T02:16:13.382Z,0
2016-02-05T02:17:13.337Z,0
2016-02-05T02:18:13.403Z,0
2016-02-05T02:19:13.374Z,0
2016-02-05T02:20:13.394Z,0
2016-02-05T02:21:13.335Z,0
2016-02-05T02:22:13.369Z,0
2016-02-05T02:23:13.387Z,0
2016-02-05T02:24:13.422Z,0
2016-02-05T02:25:13.392Z,0
2016-02-05T02:26:13.333Z,0
2016-02-05T02:27:13.383Z,0
2016-02-05T02:28:13.325Z,0
2016-02-05T02:29:13.359Z,0
2016-02-05T02:30:13.414Z,0
2016-02-05T02:31:13.338Z,0
2016-02-05T02:32:13.341Z,0
2016-02-05T02:33:13.406Z,0
2016-02-05T02:34:13.363Z,0
2016-02-05T02:35:13.412Z,0
2016-02-05T02:36:13.337Z,0
2016-02-05T02:37:13.354Z,0
2016-02-05T02:38:13.388Z,0
2016-02-05T02:39:13.423Z,0
2016-02-05T02:40:13.458Z,0
2016-02-05T02:41:13.350Z,0
2016-02-05T02:42:13.431Z,0
2016-02-05T02:43:13.356Z,0
2016-02-05T02:44:13.349Z,0
2016-02-05T02:45:13.319Z,0
2016-02-05T02:46:13.353Z,0
2016-02-05T02:47:13.324Z,0
2016-02-05T02:48:13.343Z,0
2016-02-05T02:49:13.329Z,0
2016-02-05T02:50:13.379Z,0
2016-02-05T02:51:13.335Z,0
2016-02-05T02:52:13.323Z,0
2016-02-05T02:53:13.359Z,0
2016-02-05T02:54:13.346Z,0
2016-02-05T02:55:13.395Z,0
2016-02-05T02:56:13.336Z,0
2016-02-05T02:57:13.323Z,0
2016-02-05T02:58:13.343Z,0
2016-02-05T02:59:13.314Z,0
2016-02-05T03:00:13.352Z,0
2016-02-05T03:01:13.402Z,0
2016-02-05T03:02:13.341Z,0
2016-02-05T03:03:13.360Z,0
2016-02-05T03:04:13.347Z,0
2016-02-05T03:05:13.382Z,0
2016-02-05T03:06:13.322Z,0
2016-02-05T03:07:13.309Z,0
2016-02-05T03:08:13.280Z,0
2016-02-05T03:09:13.331Z,0
2016-02-05T03:10:13.395Z,0
2016-02-05T03:11:13.273Z,0
2016-02-05T03:12:13.322Z,0
2016-02-05T03:13:13.264Z,0
2016-02-05T03:14:13.349Z,0
2016-02-05T03:15:13.867Z,0
2016-02-05T03:16:13.466Z,0
2016-02-05T03:17:13.438Z,0
2016-02-05T03:18:13.441Z,0
2016-02-05T03:19:13.693Z,0
2016-02-05T03:20:13.792Z,0
2016-02-05T03:21:13.578Z,0
2016-02-05T03:22:13.706Z,0
2016-02-05T03:23:13.504Z,0
2016-02-05T03:24:13.867Z,0
2016-02-05T03:25:13.681Z,0
2016-02-05T03:26:13.857Z,0
2016-02-05T03:27:13.766Z,0
2016-02-05T03:28:13.738Z,0
2016-02-05T03:29:13.678Z,0
2016-02-05T03:30:13.274Z,0
2016-02-05T03:31:13.461Z,0
2016-02-05T03:32:13.605Z,0
2016-02-05T03:33:13.497Z,0
2016-02-05T03:34:13.515Z,0
2016-02-05T03:35:13.580Z,0
2016-02-05T03:36:13.599Z,0
2016-02-05T03:37:13.274Z,0
2016-02-05T03:38:13.622Z,0
2016-02-05T03:39:13.593Z,0
2016-02-05T03:40:13.767Z,0
2016-02-05T03:41:13.599Z,0
2016-02-05T03:42:13.414Z,0
2016-02-05T03:43:13.542Z,0
2016-02-05T03:44:13.232Z,0
2016-02-05T03:45:13.250Z,0
2016-02-05T03:46:13.271Z,0
2016-02-05T03:47:13.304Z,0
2016-02-05T03:48:13.105Z,0
2016-02-05T03:49:13.279Z,0
2016-02-05T03:50:13.235Z,0
2016-02-05T03:51:13.237Z,0
2016-02-05T03:52:13.272Z,0
2016-02-05T03:53:13.258Z,0
2016-02-05T03:54:13.292Z,0
2016-02-05T03:55:13.217Z,0
2016-02-05T03:56:13.281Z,0
2016-02-05T03:57:13.238Z,0
2016-02-05T03:58:13.244Z,0
2016-02-05T03:59:13.262Z,0
2016-02-05T04:00:13.317Z,0
2016-02-05T04:01:13.289Z,0
2016-02-05T04:02:13.230Z,0
2016-02-05T04:03:13.233Z,0
2016-02-05T04:04:13.219Z,0
2016-02-05T04:05:13.239Z,0
2016-02-05T04:06:13.322Z,0
2016-02-05T04:07:13.231Z,0
2016-02-05T04:08:13.264Z,0
2016-02-05T04:09:13.252Z,0
2016-02-05T04:10:13.333Z,0
2016-02-05T04:11:13.241Z,0
2016-02-05T04:12:13.213Z,0
2016-02-05T04:13:13.294Z,0
2016-02-05T04:14:13.202Z,0
2016-02-05T04:15:13.221Z,0
2016-02-05T04:16:13.224Z,0
2016-02-05T04:17:13.491Z,0
2016-02-05T04:18:13.464Z,0
2016-02-05T04:19:13.747Z,0
2016-02-05T04:20:13.876Z,0
2016-02-05T04:21:13.597Z,0
2016-02-05T04:22:13.553Z,0
2016-02-05T04:23:13.686Z,0
2016-02-05T04:24:13.753Z,0
2016-02-05T04:25:13.801Z,0
2016-02-05T04:26:13.663Z,0
2016-02-05T04:27:13.728Z,0
2016-02-05T04:28:13.215Z,0
2016-02-05T04:29:13.248Z,0
2016-02-05T04:30:13.297Z,0
2016-02-05T04:31:13.222Z,0
2016-02-05T04:32:13.303Z,0
2016-02-05T04:33:13.205Z,0
2016-02-05T04:34:13.247Z,0
2016-02-05T04:35:13.257Z,0
2016-02-05T04:36:13.173Z,0
2016-02-05T04:37:13.215Z,0
2016-02-05T04:38:13.231Z,0
2016-02-05T04:39:13.167Z,0
2016-02-05T04:40:13.183Z,0
2016-02-05T04:41:13.153Z,0
2016-02-05T04:42:13.247Z,0
2016-02-05T04:43:13.186Z,0
2016-02-05T04:44:13.156Z,0
2016-02-05T04:45:13.172Z,0
2016-02-05T04:46:13.174Z,0
2016-02-05T04:47:13.144Z,0
2016-02-05T04:48:13.162Z,0
2016-02-05T04:49:13.165Z,0
2016-02-05T04:50:13.167Z,0
2016-02-05T04:51:13.171Z,0
2016-02-05T04:52:13.235Z,0
2016-02-05T04:53:13.160Z,0
2016-02-05T04:54:13.116Z,0
2016-02-05T04:55:13.212Z,0
2016-02-05T04:56:13.141Z,0
2016-02-05T04:57:13.175Z,0
2016-02-05T04:58:13.177Z,0
2016-02-05T04:59:13.197Z,0
2016-02-05T05:00:13.202Z,0
2016-02-05T05:01:13.172Z,0
2016-02-05T05:02:13.128Z,0
2016-02-05T05:03:13.115Z,0
2016-02-05T05:04:13.169Z,0
2016-02-05T05:05:13.202Z,0
2016-02-05T05:06:13.173Z,0
2016-02-05T05:07:13.160Z,0
2016-02-05T05:08:13.180Z,0
2016-02-05T05:09:13.135Z,0
2016-02-05T05:10:13.184Z,0
2016-02-05T05:11:13.155Z,0
2016-02-05T05:12:13.002Z,0
2016-02-05T05:13:13.130Z,0
2016-02-05T05:14:13.132Z,0
2016-02-05T05:15:13.198Z,0
2016-02-05T05:16:13.169Z,0
2016-02-05T05:17:13.219Z,0
2016-02-05T05:18:13.144Z,0
2016-02-05T05:19:13.224Z,0
2016-02-05T05:20:13.133Z,0
2016-02-05T05:21:12.980Z,0
2016-02-05T05:22:13.171Z,0
2016-02-05T05:23:13.189Z,0
2016-02-05T05:24:13.130Z,0
2016-02-05T05:25:13.164Z,0
2016-02-05T05:26:13.136Z,0
2016-02-05T05:27:13.153Z,0
2016-02-05T05:28:13.141Z,0
2016-02-05T05:29:13.132Z,0
2016-02-05T05:30:13.153Z,0
2016-02-05T05:31:13.124Z,0
2016-02-05T05:32:13.127Z,0
2016-02-05T05:33:13.098Z,0
2016-02-05T05:34:13.132Z,0
2016-02-05T05:35:13.182Z,0
2016-02-05T05:36:13.127Z,0
2016-02-05T05:37:13.160Z,0
2016-02-05T05:38:13.116Z,0
2016-02-05T05:39:13.119Z,0
2016-02-05T05:40:13.200Z,0
2016-02-05T05:41:13.124Z,0
2016-02-05T05:42:13.157Z,0
2016-02-05T05:43:13.114Z,0
2016-02-05T05:44:13.086Z,0
2016-02-05T05:45:13.199Z,0
2016-02-05T05:46:13.091Z,0
2016-02-05T05:47:13.094Z,0
2016-02-05T05:48:13.144Z,0
2016-02-05T05:49:13.131Z,0
2016-02-05T05:50:13.134Z,0
2016-02-05T05:51:13.122Z,0
2016-02-05T05:52:13.108Z,0
2016-02-05T05:53:13.097Z,0
2016-02-05T05:54:13.083Z,0
2016-02-05T05:55:13.148Z,0
2016-02-05T05:56:13.104Z,0
2016-02-05T05:57:13.090Z,0
2016-02-05T05:58:13.110Z,0
2016-02-05T05:59:13.097Z,0
2016-02-05T06:00:13.194Z,0
2016-02-05T06:01:13.117Z,0
2016-02-05T06:02:13.153Z,0
2016-02-05T06:03:13.186Z,0
2016-02-05T06:04:13.126Z,0
2016-02-05T06:05:13.145Z,0
2016-02-05T06:06:13.147Z,0
2016-02-05T06:07:13.181Z,0
2016-02-05T06:08:13.106Z,0
2016-02-05T06:09:13.095Z,0
2016-02-05T06:10:13.143Z,0
2016-02-05T06:11:13.131Z,0
2016-02-05T06:12:13.102Z,0
2016-02-05T06:13:13.105Z,0
2016-02-05T06:14:13.139Z,0
2016-02-05T06:15:13.157Z,0
2016-02-05T06:16:13.081Z,0
2016-02-05T06:17:13.131Z,0
2016-02-05T06:18:13.088Z,0
2016-02-05T06:19:13.108Z,0
2016-02-05T06:20:13.172Z,0
2016-02-05T06:21:13.113Z,0
2016-02-05T06:22:13.072Z,0
2016-02-05T06:23:16.153Z,0
2016-02-05T06:24:13.125Z,0
2016-02-05T06:25:13.174Z,0
2016-02-05T06:26:13.114Z,0
2016-02-05T06:27:13.085Z,0
2016-02-05T06:28:13.136Z,0
2016-02-05T06:29:13.094Z,0
2016-02-05T06:30:13.153Z,0
2016-02-05T06:31:13.076Z,0
2016-02-05T06:32:13.111Z,0
2016-02-05T06:33:13.067Z,0
2016-02-05T06:34:13.070Z,0
2016-02-05T06:35:13.087Z,0
2016-02-05T06:36:13.153Z,0
2016-02-05T06:37:13.078Z,0
2016-02-05T06:38:13.080Z,0
2016-02-05T06:39:13.114Z,0
2016-02-05T06:40:13.180Z,0
2016-02-05T06:41:13.073Z,0
2016-02-05T06:42:13.076Z,0
2016-02-05T06:43:13.142Z,0
2016-02-05T06:44:13.112Z,0
2016-02-05T06:45:13.084Z,0
2016-02-05T06:46:13.118Z,0
2016-02-05T06:47:13.106Z,0
2016-02-05T06:48:13.077Z,0
2016-02-05T06:49:13.110Z,0
2016-02-05T06:50:13.128Z,0
2016-02-05T06:51:13.132Z,0
2016-02-05T06:52:13.056Z,0
2016-02-05T06:53:13.043Z,0
2016-02-05T06:54:13.062Z,0
2016-02-05T06:55:13.049Z,0
2016-02-05T06:56:13.068Z,0
2016-02-05T06:57:13.070Z,0
2016-02-05T06:58:13.073Z,0
2016-02-05T06:59:13.028Z,0
2016-02-05T07:00:13.076Z,0
2016-02-05T07:01:13.063Z,0
2016-02-05T07:02:13.066Z,0
2016-02-05T07:03:13.068Z,0
2016-02-05T07:04:13.415Z,5
2016-02-05T07:05:13.075Z,5
2016-02-05T07:06:12.906Z,5
2016-02-05T07:07:13.064Z,5
2016-02-05T07:08:13.098Z,5
2016-02-05T07:09:13.055Z,5
2016-02-05T07:10:13.104Z,10
2016-02-05T07:11:13.092Z,10
2016-02-05T07:12:13.047Z,10
2016-02-05T07:13:13.082Z,10
2016-02-05T07:14:13.054Z,10
2016-02-05T07:15:13.057Z,10
2016-02-05T07:16:13.059Z,10
2016-02-05T07:17:13.015Z,10
2016-02-05T07:18:13.049Z,10
2016-02-05T07:19:13.052Z,10
2016-02-05T07:20:13.070Z,10
2016-02-05T07:21:13.042Z,10
2016-02-05T07:22:13.145Z,10
2016-02-05T07:23:13.022Z,15
2016-02-05T07:24:13.041Z,15
2016-02-05T07:25:13.106Z,15
2016-02-05T07:26:13.031Z,15
2016-02-05T07:27:13.050Z,15
2016-02-05T07:28:13.084Z,15
2016-02-05T07:29:13.056Z,15
2016-02-05T07:30:13.075Z,15
2016-02-05T07:31:13.110Z,15
2016-02-05T07:32:13.019Z,15
2016-02-05T07:33:12.990Z,15
2016-02-05T07:34:13.055Z,15
2016-02-05T07:35:13.154Z,20
2016-02-05T07:36:13.047Z,20
2016-02-05T07:37:13.049Z,20
2016-02-05T07:38:13.005Z,20
2016-02-05T07:39:13.039Z,20
2016-02-05T07:40:13.011Z,20
2016-02-05T07:41:13.060Z,25
2016-02-05T07:42:13.079Z,25
2016-02-05T07:43:13.003Z,25
2016-02-05T07:44:13.020Z,25
2016-02-05T07:45:13.009Z,25
2016-02-05T07:46:13.043Z,30
2016-02-05T07:47:13.014Z,30
2016-02-05T07:48:13.047Z,30
2016-02-05T07:49:13.019Z,30
2016-02-05T07:50:13.147Z,35
2016-02-05T07:51:13.118Z,35
2016-02-05T07:52:13.011Z,35
2016-02-05T07:53:12.999Z,35
2016-02-05T07:54:13.016Z,40
2016-02-05T07:55:13.007Z,40
2016-02-05T07:56:13.024Z,40
2016-02-05T07:57:13.043Z,40
2016-02-05T07:58:13.060Z,40
2016-02-05T07:59:13.017Z,40
2016-02-05T08:00:13.129Z,45
2016-02-05T08:01:12.996Z,45
2016-02-05T08:02:13.033Z,45
2016-02-05T08:03:13.052Z,45
2016-02-05T08:04:13.039Z,45
2016-02-05T08:05:13.199Z,45
2016-02-05T08:06:13.091Z,45
2016-02-05T08:07:13.016Z,45
2016-02-05T08:08:13.036Z,45
2016-02-05T08:09:13.100Z,45
2016-02-05T08:10:13.041Z,45
2016-02-05T08:11:13.011Z,45
2016-02-05T08:12:13.030Z,45
2016-02-05T08:13:13.033Z,45
2016-02-05T08:14:13.051Z,45
2016-02-05T08:15:13.007Z,50
2016-02-05T08:16:13.010Z,50
2016-02-05T08:17:13.043Z,50
2016-02-05T08:18:13.046Z,50
2016-02-05T08:19:13.018Z,55
2016-02-05T08:20:12.882Z,55
2016-02-05T08:21:12.994Z,55
2016-02-05T08:22:13.014Z,55
2016-02-05T08:23:13.032Z,55
2016-02-05T08:24:13.002Z,55
2016-02-05T08:25:13.099Z,55
2016-02-05T08:26:13.055Z,55
2016-02-05T08:27:12.996Z,55
2016-02-05T08:28:13.047Z,55
2016-02-05T08:29:13.018Z,60
2016-02-05T08:30:13.084Z,60
2016-02-05T08:31:13.025Z,65
2016-02-05T08:32:13.044Z,65
2016-02-05T08:33:13.000Z,70
2016-02-05T08:34:13.002Z,70
2016-02-05T08:35:13.099Z,75
2016-02-05T08:36:12.993Z,80
2016-02-05T08:37:13.010Z,80
2016-02-05T08:38:13.044Z,80
2016-02-05T08:39:13.001Z,75
2016-02-05T08:40:13.097Z,75
2016-02-05T08:41:13.038Z,70
2016-02-05T08:42:12.994Z,70
2016-02-05T08:43:13.012Z,70
2016-02-05T08:44:13.015Z,70
2016-02-05T08:45:13.064Z,70
2016-02-05T08:46:13.036Z,70
2016-02-05T08:47:13.085Z,75
2016-02-05T08:48:13.027Z,75
2016-02-05T08:49:13.062Z,75
2016-02-05T08:50:13.033Z,80
2016-02-05T08:51:12.973Z,85
2016-02-05T08:52:13.117Z,85
2016-02-05T08:53:13.011Z,90
2016-02-05T08:54:12.983Z,95
2016-02-05T08:55:13.095Z,95
2016-02-05T08:56:13.020Z,100
2016-02-05T08:57:13.022Z,100
2016-02-05T08:58:13.041Z,105
2016-02-05T08:59:12.996Z,105
2016-02-05T09:00:13.126Z,105
2016-02-05T09:01:13.037Z,105
2016-02-05T09:02:13.024Z,105
2016-02-05T09:03:13.027Z,105
2016-02-05T09:04:13.045Z,110
2016-02-05T09:05:12.910Z,110
2016-02-05T09:06:13.023Z,110
2016-02-05T09:07:13.026Z,105
2016-02-05T09:08:13.028Z,105
2016-02-05T09:09:13.031Z,110
2016-02-05T09:10:13.049Z,110
2016-02-05T09:11:13.036Z,110
2016-02-05T09:12:13.006Z,110
2016-02-05T09:13:13.012Z,110
2016-02-05T09:14:13.064Z,110
2016-02-05T09:15:13.068Z,115
2016-02-05T09:16:13.056Z,115
2016-02-05T09:17:13.060Z,115
2016-02-05T09:18:13.046Z,115
2016-02-05T09:19:13.065Z,120
2016-02-05T09:20:13.012Z,120
2016-02-05T09:21:13.046Z,120
2016-02-05T09:22:13.065Z,120
2016-02-05T09:23:13.067Z,125
2016-02-05T09:24:13.476Z,125
2016-02-05T09:25:13.073Z,125
2016-02-05T09:26:13.047Z,125
2016-02-05T09:27:13.066Z,125
2016-02-05T09:28:13.053Z,125
2016-02-05T09:29:13.055Z,125
2016-02-05T09:30:13.058Z,125
2016-02-05T09:31:13.092Z,125
2016-02-05T09:32:13.032Z,130
2016-02-05T09:33:13.066Z,130
2016-02-05T09:34:13.038Z,135
2016-02-05T09:35:13.025Z,140
2016-02-05T09:36:13.075Z,140
2016-02-05T09:37:13.077Z,145
2016-02-05T09:38:13.034Z,145
2016-02-05T09:39:13.051Z,155
2016-02-05T09:40:13.148Z,150
2016-02-05T09:41:13.042Z,155
2016-02-05T09:42:13.028Z,155
2016-02-05T09:43:13.031Z,150
2016-02-05T09:44:13.080Z,145
2016-02-05T09:45:13.098Z,140
2016-02-05T09:46:13.056Z,140
2016-02-05T09:47:13.121Z,140
2016-02-05T09:48:13.063Z,140
2016-02-05T09:49:13.036Z,135
2016-02-05T09:50:13.101Z,140
2016-02-05T09:51:13.040Z,140
2016-02-05T09:52:13.059Z,140
2016-02-05T09:53:13.078Z,140
2016-02-05T09:54:13.097Z,150
2016-02-05T09:55:13.084Z,145
2016-02-05T09:56:13.133Z,150
2016-02-05T09:57:13.043Z,150
2016-02-05T09:58:13.109Z,155
2016-02-05T09:59:13.096Z,160
2016-02-05T10:00:13.145Z,160
2016-02-05T10:01:13.086Z,160
2016-02-05T10:02:13.120Z,160
2016-02-05T10:03:13.061Z,155
2016-02-05T10:04:13.079Z,155
2016-02-05T10:05:13.192Z,150
2016-02-05T10:06:13.085Z,150
2016-02-05T10:07:13.119Z,150
2016-02-05T10:08:13.185Z,150
2016-02-05T10:09:12.984Z,150
2016-02-05T10:10:13.252Z,150
2016-02-05T10:11:13.162Z,150
2016-02-05T10:12:13.101Z,150
2016-02-05T10:13:13.120Z,150
2016-02-05T10:14:13.138Z,150
2016-02-05T10:15:13.172Z,150
2016-02-05T10:16:13.114Z,155
2016-02-05T10:17:13.225Z,160
2016-02-05T10:18:13.119Z,160
2016-02-05T10:19:13.126Z,165
2016-02-05T10:20:13.175Z,170
2016-02-05T10:21:13.115Z,175
2016-02-05T10:22:13.118Z,175
2016-02-05T10:23:13.137Z,180
2016-02-05T10:24:13.108Z,180
2016-02-05T10:25:13.126Z,185
2016-02-05T10:26:13.160Z,185
2016-02-05T10:27:13.164Z,190
2016-02-05T10:28:13.119Z,195
2016-02-05T10:29:13.137Z,195
2016-02-05T10:30:13.202Z,200
2016-02-05T10:31:13.127Z,205
2016-02-05T10:32:13.130Z,205
2016-02-05T10:33:13.183Z,210
2016-02-05T10:34:13.169Z,205
2016-02-05T10:35:13.250Z,205
2016-02-05T10:36:13.144Z,210
2016-02-05T10:37:13.131Z,210
2016-02-05T10:38:13.133Z,220
2016-02-05T10:39:13.185Z,220
2016-02-05T10:40:13.203Z,225
2016-02-05T10:41:13.143Z,225
2016-02-05T10:42:13.177Z,225
2016-02-05T10:43:13.180Z,225
2016-02-05T10:44:13.198Z,220
2016-02-05T10:45:13.232Z,215
2016-02-05T10:46:13.157Z,215
2016-02-05T10:47:13.190Z,215
2016-02-05T10:48:13.193Z,220
2016-02-05T10:49:13.165Z,220
2016-02-05T10:50:13.183Z,230
2016-02-05T10:51:13.061Z,240
2016-02-05T10:52:13.204Z,230
2016-02-05T10:53:13.191Z,225
2016-02-05T10:54:13.194Z,220
2016-02-05T10:55:13.290Z,220
2016-02-05T10:56:13.200Z,215
2016-02-05T10:57:13.202Z,220
2016-02-05T10:58:13.220Z,230
2016-02-05T10:59:13.177Z,230
2016-02-05T11:00:13.242Z,230
2016-02-05T11:01:13.245Z,250
2016-02-05T11:02:13.217Z,250
2016-02-05T11:03:13.236Z,245
2016-02-05T11:04:13.239Z,230
2016-02-05T11:05:13.258Z,225
2016-02-05T11:06:13.244Z,225
2016-02-05T11:07:13.294Z,250
2016-02-05T11:08:13.265Z,250
2016-02-05T11:09:13.237Z,245
2016-02-05T11:10:13.255Z,250
2016-02-05T11:11:13.321Z,245
2016-02-05T11:12:13.230Z,250
2016-02-05T11:13:13.249Z,250
2016-02-05T11:14:13.267Z,255
2016-02-05T11:15:13.316Z,255
2016-02-05T11:16:13.289Z,255
2016-02-05T11:17:13.307Z,260
2016-02-05T11:18:13.279Z,260
2016-02-05T11:19:13.268Z,260
2016-02-05T11:20:13.364Z,255
2016-02-05T11:21:13.273Z,255
2016-02-05T11:22:13.291Z,240
2016-02-05T11:23:13.294Z,235
2016-02-05T11:24:13.298Z,235
2016-02-05T11:25:13.332Z,240
2016-02-05T11:26:13.319Z,220
2016-02-05T11:27:13.290Z,220
2016-02-05T11:28:13.309Z,210
2016-02-05T11:29:13.389Z,225
2016-02-05T11:30:13.314Z,220
2016-02-05T11:31:13.301Z,220
2016-02-05T11:32:13.369Z,220
2016-02-05T11:33:13.340Z,220
2016-02-05T11:34:13.374Z,215
2016-02-05T11:35:13.563Z,215
2016-02-05T11:36:13.395Z,215
2016-02-05T11:37:13.386Z,215
2016-02-05T11:38:13.358Z,220
2016-02-05T11:39:13.205Z,220
2016-02-05T11:40:13.317Z,220
2016-02-05T11:41:13.382Z,215
2016-02-05T11:42:13.353Z,215
2016-02-05T11:43:13.372Z,210
2016-02-05T11:44:13.390Z,210
2016-02-05T11:45:13.409Z,210
2016-02-05T11:46:13.395Z,210
2016-02-05T11:47:13.429Z,215
2016-02-05T11:48:13.369Z,215
2016-02-05T11:49:13.403Z,210
2016-02-05T11:50:13.422Z,210
2016-02-05T11:51:13.409Z,210
2016-02-05T11:52:13.442Z,210
2016-02-05T11:53:13.414Z,210
2016-02-05T11:54:13.416Z,210
2016-02-05T11:55:13.482Z,210
2016-02-05T11:56:13.453Z,220
2016-02-05T11:57:13.425Z,215
2016-02-05T11:58:13.412Z,225
2016-02-05T11:59:13.462Z,225
2016-02-05T12:00:13.417Z,230
2016-02-05T12:01:13.436Z,235
2016-02-05T12:02:13.456Z,240
2016-02-05T12:03:13.443Z,245
2016-02-05T12:04:13.477Z,245
2016-02-05T12:05:13.450Z,205
2016-02-05T12:06:13.469Z,200
2016-02-05T12:07:13.472Z,190
2016-02-05T12:08:13.490Z,185
2016-02-05T12:09:13.461Z,185
2016-02-05T12:10:13.515Z,190
2016-02-05T12:11:13.501Z,185
2016-02-05T12:12:13.457Z,180
2016-02-05T12:13:13.476Z,180
2016-02-05T12:14:13.494Z,180
2016-02-05T12:15:13.543Z,180
2016-02-05T12:16:13.514Z,175
2016-02-05T12:17:13.394Z,175
2016-02-05T12:18:13.538Z,175
2016-02-05T12:19:13.525Z,175
2016-02-05T12:20:13.558Z,175
2016-02-05T12:21:13.608Z,175
2016-02-05T12:22:13.518Z,175
2016-02-05T12:23:13.568Z,180
2016-02-05T12:24:13.571Z,180
2016-02-05T12:25:13.559Z,180
2016-02-05T12:26:13.531Z,185
2016-02-05T12:27:13.596Z,185
2016-02-05T12:28:13.552Z,190
2016-02-05T12:29:13.585Z,190
2016-02-05T12:30:13.623Z,190
2016-02-05T12:31:13.593Z,195
2016-02-05T12:32:13.596Z,185
2016-02-05T12:33:13.415Z,180
2016-02-05T12:34:13.637Z,185
2016-02-05T12:35:13.452Z,180
2016-02-05T12:36:13.580Z,185
2016-02-05T12:37:13.598Z,185
2016-02-05T12:38:13.448Z,185
2016-02-05T12:39:13.591Z,190
2016-02-05T12:40:13.625Z,200
2016-02-05T12:41:13.628Z,190
2016-02-05T12:42:13.662Z,190
2016-02-05T12:43:13.634Z,190
2016-02-05T12:44:13.653Z,190
2016-02-05T12:45:13.670Z,190
2016-02-05T12:46:13.659Z,190
2016-02-05T12:47:13.645Z,190
2016-02-05T12:48:13.632Z,190
2016-02-05T12:49:13.666Z,190
2016-02-05T12:50:13.845Z,195
2016-02-05T12:51:13.689Z,195
2016-02-05T12:52:13.676Z,195
2016-02-05T12:53:13.647Z,195
2016-02-05T12:54:13.696Z,195
2016-02-05T12:55:13.734Z,190
2016-02-05T12:56:13.705Z,190
2016-02-05T12:57:13.724Z,195
2016-02-05T12:58:13.696Z,205
2016-02-05T12:59:13.558Z,210
2016-02-05T13:00:13.716Z,210
2016-02-05T13:01:13.673Z,205
2016-02-05T13:02:13.722Z,205
2016-02-05T13:03:13.726Z,205
2016-02-05T13:04:13.448Z,195
2016-02-05T13:05:13.754Z,205
2016-02-05T13:06:13.714Z,190
2016-02-05T13:07:13.747Z,195
2016-02-05T13:08:13.781Z,200
2016-02-05T13:09:13.784Z,205
2016-02-05T13:10:13.739Z,210
2016-02-05T13:11:13.777Z,210
2016-02-05T13:12:13.780Z,215
2016-02-05T13:13:13.829Z,205
2016-02-05T13:14:13.785Z,205
2016-02-05T13:15:13.804Z,210
2016-02-05T13:16:13.761Z,205
2016-02-05T13:17:13.763Z,205
2016-02-05T13:18:13.750Z,200
2016-02-05T13:19:13.769Z,205
2016-02-05T13:20:13.850Z,205
2016-02-05T13:21:13.790Z,200
2016-02-05T13:22:13.808Z,200
2016-02-05T13:23:13.798Z,200
2016-02-05T13:24:13.831Z,195
2016-02-05T13:25:13.818Z,195
2016-02-05T13:26:13.836Z,195
2016-02-05T13:27:13.855Z,195
2016-02-05T13:28:13.796Z,195
2016-02-05T13:29:13.862Z,190
2016-02-05T13:30:13.896Z,195
2016-02-05T13:31:13.823Z,195
2016-02-05T13:32:16.854Z,185
2016-02-05T13:33:14.372Z,180
2016-02-05T13:34:15.863Z,180
2016-02-05T13:35:14.816Z,190
2016-02-05T13:36:14.440Z,190
2016-02-05T13:37:14.211Z,185
2016-02-05T13:38:13.823Z,185
2016-02-05T13:39:13.854Z,190
2016-02-05T13:40:13.819Z,185
2016-02-05T13:41:13.861Z,185
2016-02-05T13:42:13.904Z,185
2016-02-05T13:43:13.836Z,180
2016-02-05T13:44:13.848Z,180
2016-02-05T13:45:13.927Z,180
2016-02-05T13:46:13.787Z,180
2016-02-05T13:47:13.804Z,180
2016-02-05T13:48:13.820Z,180
2016-02-05T13:49:13.837Z,175
2016-02-05T13:50:13.886Z,175
2016-02-05T13:51:14.267Z,175
2016-02-05T13:52:13.815Z,175
2016-02-05T13:53:13.818Z,175
2016-02-05T13:54:13.867Z,175
2016-02-05T13:55:13.869Z,170
2016-02-05T13:56:13.844Z,170
2016-02-05T13:57:13.832Z,170
2016-02-05T13:58:13.834Z,175
2016-02-05T13:59:13.884Z,170
2016-02-05T14:00:13.901Z,175
2016-02-05T14:01:13.842Z,170
2016-02-05T14:02:13.892Z,165
2016-02-05T14:03:13.879Z,165
2016-02-05T14:04:13.854Z,165
2016-02-05T14:05:13.888Z,165
2016-02-05T14:06:14.188Z,165
2016-02-05T14:07:13.877Z,160
2016-02-05T14:08:13.927Z,160
2016-02-05T14:09:13.915Z,160
2016-02-05T14:10:13.902Z,160
2016-02-05T14:11:13.936Z,160
2016-02-05T14:12:13.907Z,160
2016-02-05T14:13:13.894Z,160
2016-02-05T14:14:13.897Z,155
2016-02-05T14:15:13.900Z,155
2016-02-05T14:16:13.902Z,155
2016-02-05T14:17:13.938Z,155
2016-02-05T14:18:13.894Z,155
2016-02-05T14:19:13.912Z,150